KBID

Details ICAO KBID (BID)
Name Block Island State
Region United States
Timezone America/New_York (UTC-5.0)
Plans Departing 12
Arriving 18
Stats Elevation 108 ft / 33 m (AMSL)
Location 41.168139° -71.577612°
Runways 1
Magnetic Variation 14.135° W
Sunrise 2017-12-17 12:07:30 UTC / 2017-12-17 07:07:30 Local
Sunset 2017-12-17 21:20:17 UTC / 2017-12-17 16:20:17 Local
Advertisement - Login to hide

Runways

ID Width Length Bearing (true) Bearing (mag) Surface Threshold Offset Overrun Length
10 98 ft / 30 m 2,504 ft / 763 m 83.74° 97.87° Asphalt 0 ft / 0 m 0 ft / 0 m
28 98 ft / 30 m 2,504 ft / 763 m 263.75° 277.88° Asphalt 0 ft / 0 m 0 ft / 0 m

Map

Weather


0- 5 10 15 20 25 30 35+ Temperature / ° C

Clouds and Precipitation
Forecast for 2017-12-18 06:00 UTC. Updated 4 minutes ago

Ground ~20,000 ft ~40,000 ft Winds

METAR

KBID 180056Z AUTO 33005KT 10SM CLR M01/M11 A3028 RMK AO2 SLP259 T10111106 FZRANO

TAF

Not found

Frequencies

Recorded 134.78 MHz AWOS-3
Unicom 123.00 MHz CTAF/Unicom
Warning: Do not use this data for real-world aviation or navigation. No guarantee of current accuracy is given.